createdAt,value
2017-10-11T00:00:52.308Z,21.73
2017-10-11T00:02:01.342Z,21.72
2017-10-11T00:03:11.038Z,21.75
2017-10-11T00:04:19.730Z,21.72
2017-10-11T00:05:28.772Z,21.76
2017-10-11T00:06:38.127Z,21.73
2017-10-11T00:07:47.488Z,21.7
2017-10-11T00:08:56.512Z,21.73
2017-10-11T00:10:05.878Z,21.72
2017-10-11T00:11:14.570Z,21.75
2017-10-11T00:12:23.614Z,21.73
2017-10-11T00:13:33.305Z,21.69
2017-10-11T00:14:42.331Z,21.77
2017-10-11T00:15:51.695Z,21.75
2017-10-11T00:17:01.057Z,21.77
2017-10-11T00:18:10.423Z,21.75
2017-10-11T00:19:19.451Z,21.67
2017-10-11T00:20:28.810Z,21.75
2017-10-11T00:21:38.170Z,21.73
2017-10-11T00:22:46.866Z,21.67
2017-10-11T00:23:55.562Z,21.77
2017-10-11T00:25:04.587Z,21.8
2017-10-11T00:26:13.616Z,21.69
2017-10-11T00:27:22.640Z,21.72
2017-10-11T00:28:31.669Z,21.69
2017-10-11T00:29:40.698Z,21.76
2017-10-11T00:30:50.052Z,21.66
2017-10-11T00:31:59.073Z,21.72
2017-10-11T00:33:08.430Z,21.77
2017-10-11T00:34:17.121Z,21.72
2017-10-11T00:35:26.149Z,21.75
2017-10-11T00:36:35.502Z,21.72
2017-10-11T00:37:44.529Z,21.73
2017-10-11T00:38:54.556Z,21.73
2017-10-11T00:40:03.578Z,21.73
2017-10-11T00:41:12.939Z,21.69
2017-10-11T00:42:21.971Z,21.7
2017-10-11T00:43:30.997Z,21.7
2017-10-11T00:44:40.358Z,21.76
2017-10-11T00:45:49.718Z,21.73
2017-10-11T00:46:58.747Z,21.69
2017-10-11T00:48:08.117Z,21.76
2017-10-11T00:49:17.839Z,21.66
2017-10-11T00:50:26.534Z,21.66
2017-10-11T00:51:35.557Z,21.76
2017-10-11T00:52:44.909Z,21.67
2017-10-11T00:53:53.610Z,21.7
2017-10-11T00:55:02.967Z,21.7
2017-10-11T00:56:12.324Z,21.66
2017-10-11T00:57:21.348Z,21.69
2017-10-11T00:58:30.377Z,21.67
2017-10-11T00:59:39.408Z,21.72
2017-10-11T01:00:48.435Z,21.64
2017-10-11T01:01:57.812Z,21.72
2017-10-11T01:03:07.506Z,21.73
2017-10-11T01:04:16.199Z,21.54
2017-10-11T01:05:25.229Z,21.66
2017-10-11T01:06:34.257Z,21.58
2017-10-11T01:07:43.618Z,21.6
2017-10-11T01:08:52.310Z,21.61
2017-10-11T01:10:01.672Z,21.69
2017-10-11T01:11:11.029Z,21.58
2017-10-11T01:12:20.061Z,21.57
2017-10-11T01:13:29.434Z,21.58
2017-10-11T01:14:38.464Z,21.58
2017-10-11T01:15:47.836Z,21.57
2017-10-11T01:16:56.867Z,21.58
2017-10-11T01:18:05.568Z,21.58
2017-10-11T01:19:14.256Z,21.58
2017-10-11T01:20:23.616Z,21.6
2017-10-11T01:21:33.311Z,21.6
2017-10-11T01:22:42.669Z,21.58
2017-10-11T01:23:51.368Z,21.61
2017-10-11T01:25:01.064Z,21.54
2017-10-11T01:26:10.093Z,21.55
2017-10-11T01:27:19.116Z,21.57
2017-10-11T01:28:28.143Z,21.62
2017-10-11T01:29:36.835Z,21.62
2017-10-11T01:30:45.528Z,21.64
2017-10-11T01:31:54.882Z,21.6
2017-10-11T01:33:03.905Z,21.57
2017-10-11T01:34:13.264Z,21.6
2017-10-11T01:35:21.960Z,21.6
2017-10-11T01:36:30.655Z,21.58
2017-10-11T01:37:39.680Z,21.61
2017-10-11T01:38:49.041Z,21.61
2017-10-11T01:39:57.738Z,21.61
2017-10-11T01:41:06.767Z,21.62
2017-10-11T01:42:15.796Z,21.55
2017-10-11T01:43:25.161Z,21.58
2017-10-11T01:44:35.195Z,21.6
2017-10-11T01:45:44.882Z,21.62
2017-10-11T01:46:53.911Z,21.57
2017-10-11T01:48:02.608Z,21.57
2017-10-11T01:49:11.969Z,21.61
2017-10-11T01:50:21.329Z,21.52
2017-10-11T01:51:30.685Z,21.61
2017-10-11T01:52:39.383Z,21.57
2017-10-11T01:53:48.746Z,21.57
2017-10-11T01:54:57.765Z,21.54
2017-10-11T01:56:06.457Z,21.6
2017-10-11T01:57:15.151Z,21.5
2017-10-11T01:58:24.184Z,21.52
2017-10-11T01:59:33.538Z,21.55
2017-10-11T02:00:42.563Z,21.52
2017-10-11T02:01:51.257Z,21.54
2017-10-11T02:03:00.281Z,21.5
2017-10-11T02:04:08.972Z,21.51
2017-10-11T02:05:18.331Z,21.52
2017-10-11T02:06:27.689Z,21.52
2017-10-11T02:07:36.378Z,21.52
2017-10-11T02:08:45.076Z,21.55
2017-10-11T02:09:54.428Z,21.58
2017-10-11T02:11:03.785Z,21.5
2017-10-11T02:12:12.482Z,21.54
2017-10-11T02:13:21.178Z,21.58
2017-10-11T02:14:30.533Z,21.5
2017-10-11T02:15:39.559Z,21.46
2017-10-11T02:16:48.578Z,21.52
2017-10-11T02:17:57.600Z,21.58
2017-10-11T02:19:06.955Z,21.52
2017-10-11T02:20:15.982Z,21.5
2017-10-11T02:21:25.341Z,21.45
2017-10-11T02:22:34.700Z,21.54
2017-10-11T02:23:43.723Z,21.48
2017-10-11T02:24:52.752Z,21.48
2017-10-11T02:26:02.111Z,21.51
2017-10-11T02:27:11.133Z,21.51
2017-10-11T02:28:20.490Z,21.54
2017-10-11T02:29:30.179Z,21.5
2017-10-11T02:30:39.204Z,21.46
2017-10-11T02:31:48.236Z,21.46
2017-10-11T02:32:58.250Z,21.54
2017-10-11T02:34:07.280Z,21.48
2017-10-11T02:35:16.636Z,21.39
2017-10-11T02:36:26.008Z,21.46
2017-10-11T02:37:34.706Z,21.48
2017-10-11T02:38:44.073Z,21.42
2017-10-11T02:39:53.765Z,21.48
2017-10-11T02:41:03.468Z,21.45
2017-10-11T02:42:12.498Z,21.5
2017-10-11T02:43:21.523Z,21.51
2017-10-11T02:44:30.555Z,21.5
2017-10-11T02:45:39.580Z,21.45
2017-10-11T02:46:48.275Z,21.42
2017-10-11T02:47:57.966Z,21.48
2017-10-11T02:49:06.993Z,21.43
2017-10-11T02:50:16.021Z,21.5
2017-10-11T02:51:25.768Z,21.5
2017-10-11T02:52:34.792Z,21.46
2017-10-11T02:53:43.814Z,21.45
2017-10-11T02:54:53.859Z,21.46
2017-10-11T02:56:02.896Z,21.48
2017-10-11T02:57:12.257Z,21.45
2017-10-11T02:58:20.953Z,21.39
2017-10-11T02:59:29.991Z,21.48
2017-10-11T03:00:39.355Z,21.4
2017-10-11T03:01:48.719Z,21.39
2017-10-11T03:02:58.413Z,21.46
2017-10-11T03:04:08.097Z,21.39
2017-10-11T03:05:17.122Z,21.43
2017-10-11T03:06:26.153Z,21.37
2017-10-11T03:07:34.840Z,21.37
2017-10-11T03:08:44.198Z,21.46
2017-10-11T03:09:52.893Z,21.37
2017-10-11T03:11:01.589Z,21.46
2017-10-11T03:12:10.283Z,21.4
2017-10-11T03:13:18.978Z,21.4
2017-10-11T03:14:28.671Z,21.37
2017-10-11T03:15:38.036Z,21.45
2017-10-11T03:16:47.067Z,21.42
2017-10-11T03:17:56.425Z,21.43
2017-10-11T03:19:05.474Z,21.4
2017-10-11T03:20:14.477Z,21.43
2017-10-11T03:21:23.844Z,21.42
2017-10-11T03:22:33.533Z,21.39
2017-10-11T03:23:42.890Z,21.42
2017-10-11T03:24:51.582Z,21.39
2017-10-11T03:26:00.611Z,21.4
2017-10-11T03:27:09.640Z,21.39
2017-10-11T03:28:18.668Z,21.39
2017-10-11T03:29:28.032Z,21.39
2017-10-11T03:30:37.059Z,21.39
2017-10-11T03:31:46.415Z,21.43
2017-10-11T03:32:56.104Z,21.37
2017-10-11T03:34:05.125Z,21.36
2017-10-11T03:35:14.151Z,21.45
2017-10-11T03:36:22.846Z,21.42
2017-10-11T03:37:31.867Z,21.42
2017-10-11T03:38:40.561Z,21.39
2017-10-11T03:39:49.588Z,21.35
2017-10-11T03:40:59.612Z,21.36
2017-10-11T03:42:08.642Z,21.35
2017-10-11T03:43:17.668Z,21.32
2017-10-11T03:44:26.692Z,21.36
2017-10-11T03:45:35.716Z,21.36
2017-10-11T03:46:44.747Z,21.32
2017-10-11T03:47:54.104Z,21.4
2017-10-11T03:49:02.796Z,21.37
2017-10-11T03:50:12.166Z,21.39
2017-10-11T03:51:20.860Z,21.36
2017-10-11T03:52:29.885Z,21.37
2017-10-11T03:53:38.578Z,21.33
2017-10-11T03:54:47.610Z,21.37
2017-10-11T03:55:56.961Z,21.37
2017-10-11T03:57:05.984Z,21.32
2017-10-11T03:58:14.680Z,21.36
2017-10-11T03:59:23.705Z,21.4
2017-10-11T04:00:32.398Z,21.29
2017-10-11T04:01:41.419Z,21.37
2017-10-11T04:02:50.448Z,21.36
2017-10-11T04:03:59.143Z,21.36
2017-10-11T04:05:08.172Z,21.25
2017-10-11T04:06:17.206Z,21.35
2017-10-11T04:07:26.903Z,21.37
2017-10-11T04:08:35.924Z,21.35
2017-10-11T04:09:44.623Z,21.27
2017-10-11T04:10:54.010Z,21.33
2017-10-11T04:12:03.376Z,21.33
2017-10-11T04:13:12.076Z,21.27
2017-10-11T04:14:21.099Z,21.39
2017-10-11T04:15:30.123Z,21.37
2017-10-11T04:16:39.143Z,21.36
2017-10-11T04:17:48.171Z,21.45
2017-10-11T04:18:57.528Z,21.3
2017-10-11T04:20:06.557Z,21.29
2017-10-11T04:21:15.250Z,21.3
2017-10-11T04:22:24.274Z,21.37
2017-10-11T04:23:33.304Z,21.3
2017-10-11T04:24:42.334Z,21.37
2017-10-11T04:25:51.033Z,21.37
2017-10-11T04:27:00.052Z,21.33
2017-10-11T04:28:08.749Z,21.37
2017-10-11T04:29:18.115Z,21.33
2017-10-11T04:30:27.143Z,21.43
2017-10-11T04:31:36.503Z,21.35
2017-10-11T04:32:45.527Z,21.29
2017-10-11T04:33:54.220Z,21.4
2017-10-11T04:35:02.916Z,21.43
2017-10-11T04:36:11.945Z,21.36
2017-10-11T04:37:20.979Z,21.4
2017-10-11T04:38:29.671Z,21.4
2017-10-11T04:39:38.365Z,21.43
2017-10-11T04:40:47.060Z,21.39
2017-10-11T04:41:56.752Z,21.46
2017-10-11T04:43:05.774Z,21.43
2017-10-11T04:44:15.132Z,21.39
2017-10-11T04:45:24.165Z,21.4
2017-10-11T04:46:32.857Z,21.42
2017-10-11T04:47:41.883Z,21.4
2017-10-11T04:48:50.579Z,21.48
2017-10-11T04:49:59.954Z,21.43
2017-10-11T04:51:09.091Z,21.46
2017-10-11T04:52:18.449Z,21.46
2017-10-11T04:53:27.808Z,21.5
2017-10-11T04:54:37.167Z,21.42
2017-10-11T04:55:45.853Z,21.5
2017-10-11T04:56:55.222Z,21.46
2017-10-11T04:58:04.918Z,21.43
2017-10-11T04:59:13.613Z,21.42
2017-10-11T05:00:23.312Z,21.5
2017-10-11T05:01:32.676Z,21.46
2017-10-11T05:02:41.706Z,21.48
2017-10-11T05:03:51.394Z,21.46
2017-10-11T05:05:00.419Z,21.52
2017-10-11T05:06:09.780Z,21.58
2017-10-11T05:07:18.805Z,21.5
2017-10-11T05:08:28.163Z,21.52
2017-10-11T05:09:37.189Z,21.5
2017-10-11T05:10:46.217Z,21.5
2017-10-11T05:11:55.238Z,21.55
2017-10-11T05:13:04.590Z,21.54
2017-10-11T05:14:13.619Z,21.62
2017-10-11T05:15:22.652Z,21.61
2017-10-11T05:16:31.685Z,21.55
2017-10-11T05:17:40.710Z,21.55
2017-10-11T05:18:49.739Z,21.6
2017-10-11T05:19:58.764Z,21.57
2017-10-11T05:21:07.454Z,21.52
2017-10-11T05:22:16.477Z,21.58
2017-10-11T05:23:25.170Z,21.57
2017-10-11T05:24:34.527Z,21.58
2017-10-11T05:25:44.217Z,21.58
2017-10-11T05:26:53.247Z,21.61
2017-10-11T05:28:01.932Z,21.57
2017-10-11T05:29:10.956Z,21.61
2017-10-11T05:30:19.979Z,21.58
2017-10-11T05:31:29.327Z,21.58
2017-10-11T05:32:38.355Z,21.58
2017-10-11T05:33:47.381Z,21.57
2017-10-11T05:34:56.742Z,21.61
2017-10-11T05:36:05.764Z,21.6
2017-10-11T05:37:14.456Z,21.6
2017-10-11T05:38:23.153Z,21.6
2017-10-11T05:39:31.850Z,21.57
2017-10-11T05:40:41.208Z,21.54
2017-10-11T05:41:50.247Z,21.6
2017-10-11T05:42:59.594Z,21.61
2017-10-11T05:44:08.622Z,21.67
2017-10-11T05:45:17.984Z,21.7
2017-10-11T05:46:26.678Z,21.64
2017-10-11T05:47:36.371Z,21.6
2017-10-11T05:48:45.394Z,21.58
2017-10-11T05:49:54.426Z,21.6
2017-10-11T05:51:04.112Z,21.6
2017-10-11T05:52:13.133Z,21.7
2017-10-11T05:53:22.154Z,21.64
2017-10-11T05:54:30.848Z,21.6
2017-10-11T05:55:39.872Z,21.66
2017-10-11T05:56:48.566Z,21.62
2017-10-11T05:57:57.264Z,21.64
2017-10-11T05:59:06.627Z,21.62
2017-10-11T06:00:15.323Z,21.64
2017-10-11T06:01:24.677Z,21.69
2017-10-11T06:02:33.703Z,21.72
2017-10-11T06:03:42.740Z,21.66
2017-10-11T06:04:52.763Z,21.72
2017-10-11T06:06:01.789Z,21.7
2017-10-11T06:07:10.482Z,21.73
2017-10-11T06:08:19.504Z,21.64
2017-10-11T06:09:28.526Z,21.69
2017-10-11T06:10:37.216Z,21.69
2017-10-11T06:11:46.245Z,21.73
2017-10-11T06:12:55.280Z,21.75
2017-10-11T06:14:03.968Z,21.69
2017-10-11T06:15:12.663Z,21.64
2017-10-11T06:16:21.692Z,21.66
2017-10-11T06:17:31.393Z,21.82
2017-10-11T06:18:40.820Z,21.7
2017-10-11T06:19:49.513Z,21.7
2017-10-11T06:20:58.880Z,21.77
2017-10-11T06:22:08.577Z,21.75
2017-10-11T06:23:17.925Z,21.72
2017-10-11T06:24:26.624Z,21.73
2017-10-11T06:25:35.983Z,21.76
2017-10-11T06:26:45.010Z,21.72
2017-10-11T06:27:54.703Z,21.79
2017-10-11T06:29:03.732Z,21.8
2017-10-11T06:30:12.423Z,21.72
2017-10-11T06:31:21.122Z,21.77
2017-10-11T06:32:29.813Z,21.73
2017-10-11T06:33:38.839Z,21.8
2017-10-11T06:34:47.867Z,21.8
2017-10-11T06:35:57.556Z,21.79
2017-10-11T06:37:06.252Z,21.82
2017-10-11T06:38:15.938Z,21.8
2017-10-11T06:39:24.643Z,21.82
2017-10-11T06:40:34.666Z,21.82
2017-10-11T06:41:44.367Z,21.8
2017-10-11T06:42:54.058Z,21.88
2017-10-11T06:44:02.755Z,21.8
2017-10-11T06:45:12.123Z,21.8
2017-10-11T06:46:20.822Z,21.8
2017-10-11T06:47:29.861Z,21.93
2017-10-11T06:48:38.893Z,21.79
2017-10-11T06:49:47.595Z,21.89
2017-10-11T06:50:56.621Z,21.88
2017-10-11T06:52:05.315Z,21.91
2017-10-11T06:53:14.346Z,21.83
2017-10-11T06:54:23.035Z,21.91
2017-10-11T06:55:32.720Z,21.85
2017-10-11T06:56:41.744Z,21.85
2017-10-11T06:57:50.435Z,21.88
2017-10-11T06:58:59.129Z,21.89
2017-10-11T07:00:07.825Z,21.93
2017-10-11T07:01:17.181Z,21.96
2017-10-11T07:02:25.872Z,21.95
2017-10-11T07:03:35.562Z,21.91
2017-10-11T07:04:44.594Z,21.88
2017-10-11T07:05:53.287Z,21.93
2017-10-11T07:07:02.310Z,21.93
2017-10-11T07:08:11.005Z,21.99
2017-10-11T07:09:19.695Z,21.95
2017-10-11T07:10:28.729Z,21.92
2017-10-11T07:11:37.418Z,21.89
2017-10-11T07:12:46.777Z,22.04
2017-10-11T07:13:56.138Z,21.96
2017-10-11T07:15:05.494Z,21.96
2017-10-11T07:16:14.193Z,21.99
2017-10-11T07:17:22.887Z,21.99
2017-10-11T07:18:32.249Z,22.02
2017-10-11T07:19:41.276Z,21.93
2017-10-11T07:20:50.644Z,21.98
2017-10-11T07:21:59.674Z,22
2017-10-11T07:23:09.035Z,22.04
2017-10-11T07:24:18.386Z,22
2017-10-11T07:25:27.078Z,22
2017-10-11T07:26:36.107Z,21.96
2017-10-11T07:27:45.470Z,22
2017-10-11T07:28:54.175Z,22
2017-10-11T07:30:03.860Z,21.98
2017-10-11T07:31:13.224Z,21.95
2017-10-11T07:32:22.581Z,21.98
2017-10-11T07:33:31.613Z,22
2017-10-11T07:34:40.973Z,21.98
2017-10-11T07:35:50.003Z,21.96
2017-10-11T07:36:59.364Z,21.99
2017-10-11T07:38:08.717Z,21.99
2017-10-11T07:39:17.741Z,22.06
2017-10-11T07:40:27.239Z,22.02
2017-10-11T07:41:36.260Z,21.98
2017-10-11T07:42:45.283Z,22.04
2017-10-11T07:43:54.645Z,21.99
2017-10-11T07:45:04.005Z,21.99
2017-10-11T07:46:13.717Z,22
2017-10-11T07:47:22.412Z,21.98
2017-10-11T07:48:31.442Z,21.96
2017-10-11T07:49:40.134Z,22.07
2017-10-11T07:50:49.167Z,21.95
2017-10-11T07:51:58.195Z,21.99
2017-10-11T07:53:07.606Z,22.11
2017-10-11T07:54:16.973Z,21.99
2017-10-11T07:55:26.027Z,22.13
2017-10-11T07:56:35.107Z,22.1
2017-10-11T07:57:44.133Z,22.13
2017-10-11T07:58:53.157Z,22.11
2017-10-11T08:00:01.858Z,22.08
2017-10-11T08:01:10.882Z,22.06
2017-10-11T08:02:20.341Z,22.08
2017-10-11T08:03:29.367Z,22.04
2017-10-11T08:04:38.136Z,22.11
2017-10-11T08:05:47.167Z,22.11
2017-10-11T08:06:55.855Z,22.07
2017-10-11T08:08:05.543Z,22.07
2017-10-11T08:09:14.901Z,22.13
2017-10-11T08:10:23.596Z,22.1
2017-10-11T08:11:32.626Z,22.15
2017-10-11T08:12:41.322Z,22.07
2017-10-11T08:13:50.690Z,22.08
2017-10-11T08:15:00.050Z,22.14
2017-10-11T08:16:09.411Z,22.17
2017-10-11T08:17:18.104Z,22.18
2017-10-11T08:18:27.138Z,22.11
2017-10-11T08:19:36.163Z,22.17
2017-10-11T08:20:45.519Z,22.14
2017-10-11T08:21:54.545Z,22.15
2017-10-11T08:23:03.578Z,22.18
2017-10-11T08:24:12.606Z,22.08
2017-10-11T08:25:21.628Z,22.1
2017-10-11T08:26:30.654Z,22.15
2017-10-11T08:27:40.016Z,22.23
2017-10-11T08:28:49.043Z,22.15
2017-10-11T08:29:58.737Z,22.17
2017-10-11T08:31:07.765Z,22.15
2017-10-11T08:32:16.463Z,22.14
2017-10-11T08:33:26.151Z,22.17
2017-10-11T08:34:34.847Z,22.2
2017-10-11T08:35:44.201Z,22.08
2017-10-11T08:36:53.226Z,22.15
2017-10-11T08:38:01.925Z,22.22
2017-10-11T08:39:11.295Z,22.14
2017-10-11T08:40:20.318Z,22.15
2017-10-11T08:41:29.341Z,22.17
2017-10-11T08:42:38.035Z,22.18
2017-10-11T08:43:47.068Z,22.2
2017-10-11T08:44:56.757Z,22.22
2017-10-11T08:46:05.786Z,22.2
2017-10-11T08:47:14.813Z,22.18
2017-10-11T08:48:23.836Z,22.14
2017-10-11T08:49:32.861Z,22.22
2017-10-11T08:50:41.900Z,22.28
2017-10-11T08:51:50.587Z,22.23
2017-10-11T08:52:59.615Z,22.13
2017-10-11T08:54:08.311Z,22.18
2017-10-11T08:55:17.004Z,22.17
2017-10-11T08:56:26.699Z,22.11
2017-10-11T08:57:35.738Z,22.2
2017-10-11T08:58:44.771Z,22.14
2017-10-11T08:59:53.793Z,22.17
2017-10-11T09:01:03.149Z,22.14
2017-10-11T09:02:11.842Z,22.2
2017-10-11T09:03:20.872Z,22.17
2017-10-11T09:04:29.902Z,22.2
2017-10-11T09:05:38.934Z,22.22
2017-10-11T09:06:47.961Z,22.25
2017-10-11T09:07:57.327Z,22.17
2017-10-11T09:09:06.709Z,22.2
2017-10-11T09:10:16.405Z,22.2
2017-10-11T09:11:25.153Z,22.17
2017-10-11T09:12:34.513Z,22.25
2017-10-11T09:13:43.207Z,22.15
2017-10-11T09:14:52.230Z,22.23
2017-10-11T09:16:01.924Z,22.15
2017-10-11T09:17:11.291Z,22.23
2017-10-11T09:18:20.645Z,22.26
2017-10-11T09:19:30.343Z,22.15
2017-10-11T09:20:39.714Z,22.18
2017-10-11T09:21:48.738Z,22.23
2017-10-11T09:22:58.758Z,22.15
2017-10-11T09:24:08.112Z,22.23
2017-10-11T09:25:17.469Z,22.2
2017-10-11T09:26:26.504Z,22.15
2017-10-11T09:27:35.869Z,22.26
2017-10-11T09:28:44.563Z,22.25
2017-10-11T09:29:53.602Z,22.18
2017-10-11T09:31:02.960Z,22.15
2017-10-11T09:32:11.990Z,22.23
2017-10-11T09:33:21.345Z,22.2
2017-10-11T09:34:30.713Z,22.29
2017-10-11T09:35:39.741Z,22.26
2017-10-11T09:36:48.770Z,22.2
2017-10-11T09:37:58.462Z,22.25
2017-10-11T09:39:07.818Z,22.2
2017-10-11T09:40:17.189Z,22.25
2017-10-11T09:41:25.878Z,22.17
2017-10-11T09:42:34.901Z,22.26
2017-10-11T09:43:43.930Z,22.26
2017-10-11T09:44:52.963Z,22.17
2017-10-11T09:46:01.985Z,22.26
2017-10-11T09:47:11.675Z,22.25
2017-10-11T09:48:21.039Z,22.26
2017-10-11T09:49:30.092Z,22.28
2017-10-11T09:50:39.119Z,22.25
2017-10-11T09:51:47.817Z,22.26
2017-10-11T09:52:56.841Z,22.28
2017-10-11T09:54:05.868Z,22.26
2017-10-11T09:55:15.223Z,22.29
2017-10-11T09:56:24.583Z,22.3
2017-10-11T09:57:33.610Z,22.3
2017-10-11T09:58:43.301Z,22.25
2017-10-11T09:59:52.663Z,22.3
2017-10-11T10:01:01.691Z,22.25
2017-10-11T10:02:11.043Z,22.23
2017-10-11T10:03:20.071Z,22.25
2017-10-11T10:04:29.756Z,22.26
2017-10-11T10:05:38.445Z,22.3
2017-10-11T10:06:47.797Z,22.28
2017-10-11T10:07:56.493Z,22.28
2017-10-11T10:09:05.854Z,22.25
2017-10-11T10:10:15.200Z,22.2
2017-10-11T10:11:24.557Z,22.3
2017-10-11T10:12:33.912Z,22.26
2017-10-11T10:13:43.269Z,22.26
2017-10-11T10:14:52.297Z,22.28
2017-10-11T10:16:00.995Z,22.26
2017-10-11T10:17:10.031Z,22.25
2017-10-11T10:18:19.387Z,22.26
2017-10-11T10:19:28.413Z,22.28
2017-10-11T10:20:37.441Z,22.25
2017-10-11T10:21:46.487Z,22.28
2017-10-11T10:22:55.178Z,22.28
2017-10-11T10:24:04.868Z,22.29
2017-10-11T10:25:13.562Z,22.29
2017-10-11T10:26:22.260Z,22.3
2017-10-11T10:27:31.954Z,22.3
2017-10-11T10:28:41.314Z,22.25
2017-10-11T10:29:50.674Z,22.29
2017-10-11T10:31:00.035Z,22.28
2017-10-11T10:32:09.054Z,22.25
2017-10-11T10:33:18.081Z,22.29
2017-10-11T10:34:26.776Z,22.26
2017-10-11T10:35:35.798Z,22.23
2017-10-11T10:36:45.153Z,22.3
2017-10-11T10:37:54.180Z,22.28
2017-10-11T10:39:03.210Z,22.2
2017-10-11T10:40:12.235Z,22.36
2017-10-11T10:41:21.261Z,22.29
2017-10-11T10:42:30.612Z,22.3
2017-10-11T10:43:39.641Z,22.33
2017-10-11T10:44:48.339Z,22.33
2017-10-11T10:45:57.029Z,22.3
2017-10-11T10:47:05.759Z,22.25
2017-10-11T10:48:14.455Z,22.23
2017-10-11T10:49:23.837Z,22.3
2017-10-11T10:50:32.866Z,22.36
2017-10-11T10:51:41.560Z,22.28
2017-10-11T10:52:50.581Z,22.3
2017-10-11T10:53:59.608Z,22.32
2017-10-11T10:55:08.638Z,22.26
2017-10-11T10:56:18.350Z,22.35
2017-10-11T10:57:27.044Z,22.28
2017-10-11T10:58:36.067Z,22.29
2017-10-11T10:59:45.425Z,22.26
2017-10-11T11:00:54.790Z,22.25
2017-10-11T11:02:04.145Z,22.25
2017-10-11T11:03:13.169Z,22.32
2017-10-11T11:04:22.192Z,22.2
2017-10-11T11:05:32.214Z,22.28
2017-10-11T11:06:40.907Z,22.28
2017-10-11T11:07:49.952Z,22.3
2017-10-11T11:08:58.979Z,22.26
2017-10-11T11:10:07.672Z,22.28
2017-10-11T11:11:16.696Z,22.3
2017-10-11T11:12:25.392Z,22.23
2017-10-11T11:13:34.085Z,22.28
2017-10-11T11:14:43.449Z,22.36
2017-10-11T11:15:52.481Z,22.3
2017-10-11T11:17:01.507Z,22.36
2017-10-11T11:18:10.203Z,22.25
2017-10-11T11:19:19.565Z,22.26
2017-10-11T11:20:28.594Z,22.29
2017-10-11T11:21:37.289Z,22.23
2017-10-11T11:22:46.660Z,22.3
2017-10-11T11:23:55.688Z,22.25
2017-10-11T11:25:04.385Z,22.26
2017-10-11T11:26:13.742Z,22.3
2017-10-11T11:27:22.769Z,22.3
2017-10-11T11:28:31.793Z,22.23
2017-10-11T11:29:40.819Z,22.26
2017-10-11T11:30:49.856Z,22.28
2017-10-11T11:31:59.544Z,22.35
2017-10-11T11:33:08.237Z,22.29
2017-10-11T11:34:17.265Z,22.28
2017-10-11T11:35:25.959Z,22.33
2017-10-11T11:36:35.322Z,22.26
2017-10-11T11:37:44.686Z,22.28
2017-10-11T11:38:54.383Z,22.29
2017-10-11T11:40:03.415Z,22.28
2017-10-11T11:41:12.457Z,22.33
2017-10-11T11:42:21.484Z,22.36
2017-10-11T11:43:30.843Z,22.36
2017-10-11T11:44:39.875Z,22.26
2017-10-11T11:45:48.901Z,22.28
2017-10-11T11:46:58.263Z,22.28
2017-10-11T11:48:07.296Z,22.32
2017-10-11T11:49:16.655Z,22.28
2017-10-11T11:50:25.685Z,22.3
2017-10-11T11:51:35.042Z,22.29
2017-10-11T11:52:44.408Z,22.28
2017-10-11T11:53:53.437Z,22.33
2017-10-11T11:55:02.462Z,22.29
2017-10-11T11:56:11.490Z,22.3
2017-10-11T11:57:20.844Z,22.35
2017-10-11T11:58:29.533Z,22.35
2017-10-11T11:59:38.228Z,22.35
2017-10-11T12:00:47.253Z,22.39
2017-10-11T12:01:56.286Z,22.33
2017-10-11T12:03:05.983Z,22.26
2017-10-11T12:04:14.675Z,22.36
2017-10-11T12:05:23.369Z,22.41
2017-10-11T12:06:33.067Z,22.33
2017-10-11T12:07:42.086Z,22.39
2017-10-11T12:08:51.109Z,22.38
2017-10-11T12:10:00.469Z,22.28
2017-10-11T12:11:09.492Z,22.26
2017-10-11T12:12:19.515Z,22.41
2017-10-11T12:13:29.205Z,22.43
2017-10-11T12:14:37.902Z,22.36
2017-10-11T12:15:46.922Z,22.43
2017-10-11T12:16:56.290Z,22.44
2017-10-11T12:18:05.645Z,22.44
2017-10-11T12:19:15.002Z,22.36
2017-10-11T12:20:24.029Z,22.41
2017-10-11T12:21:33.058Z,22.39
2017-10-11T12:22:42.422Z,22.28
2017-10-11T12:23:51.458Z,22.41
2017-10-11T12:25:00.155Z,22.39
2017-10-11T12:26:08.853Z,22.41
2017-10-11T12:27:17.550Z,22.39
2017-10-11T12:28:26.582Z,22.39
2017-10-11T12:29:35.950Z,22.41
2017-10-11T12:30:44.973Z,22.44
2017-10-11T12:31:53.668Z,22.32
2017-10-11T12:33:02.363Z,22.43
2017-10-11T12:34:11.391Z,22.39
2017-10-11T12:35:21.079Z,22.44
2017-10-11T12:36:30.108Z,22.35
2017-10-11T12:37:39.121Z,22.44
2017-10-11T12:38:48.488Z,22.38
2017-10-11T12:39:57.517Z,22.39
2017-10-11T12:41:06.547Z,22.41
2017-10-11T12:42:15.905Z,22.45
2017-10-11T12:43:24.929Z,22.38
2017-10-11T12:44:33.677Z,22.39
2017-10-11T12:45:43.035Z,22.36
2017-10-11T12:46:52.058Z,22.41
2017-10-11T12:48:01.415Z,22.38
2017-10-11T12:49:10.447Z,22.44
2017-10-11T12:50:19.486Z,22.44
2017-10-11T12:51:28.170Z,22.41
2017-10-11T12:52:36.868Z,22.28
2017-10-11T12:53:46.229Z,22.41
2017-10-11T12:54:54.923Z,22.38
2017-10-11T12:56:04.612Z,22.36
2017-10-11T12:57:13.306Z,22.44
2017-10-11T12:58:22.334Z,22.36
2017-10-11T12:59:31.701Z,22.44
2017-10-11T13:00:40.388Z,22.38
2017-10-11T13:01:49.423Z,22.32
2017-10-11T13:02:58.781Z,22.39
2017-10-11T13:04:08.139Z,22.36
2017-10-11T13:05:16.833Z,22.36
2017-10-11T13:06:26.525Z,22.38
2017-10-11T13:07:35.219Z,22.38
2017-10-11T13:08:44.916Z,22.33
2017-10-11T13:09:54.277Z,22.38
2017-10-11T13:11:03.637Z,22.38
2017-10-11T13:12:12.999Z,22.38
2017-10-11T13:13:22.025Z,22.35
2017-10-11T13:14:31.392Z,22.43
2017-10-11T13:15:41.082Z,22.38
2017-10-11T13:16:49.777Z,22.38
2017-10-11T13:17:58.824Z,22.39
2017-10-11T13:19:07.839Z,22.35
2017-10-11T13:20:17.198Z,22.41
2017-10-11T13:21:25.892Z,22.38
2017-10-11T13:22:34.586Z,22.38
2017-10-11T13:23:43.614Z,22.39
2017-10-11T13:24:52.975Z,22.36
2017-10-11T13:26:01.676Z,22.35
2017-10-11T13:27:10.367Z,22.48
2017-10-11T13:28:19.060Z,22.36
2017-10-11T13:29:28.087Z,22.39
2017-10-11T13:30:37.105Z,22.38
2017-10-11T13:31:46.460Z,22.39
2017-10-11T13:32:55.153Z,22.33
2017-10-11T13:34:03.847Z,22.35
2017-10-11T13:35:13.207Z,22.44
2017-10-11T13:36:22.236Z,22.39
2017-10-11T13:37:31.269Z,22.38
2017-10-11T13:38:40.292Z,22.32
2017-10-11T13:39:49.647Z,22.38
2017-10-11T13:40:58.689Z,22.43
2017-10-11T13:42:08.043Z,22.36
2017-10-11T13:43:17.067Z,22.36
2017-10-11T13:44:26.431Z,22.44
2017-10-11T13:45:35.784Z,22.45
2017-10-11T13:46:44.814Z,22.45
2017-10-11T13:47:53.512Z,22.43
2017-10-11T13:49:02.873Z,22.47
2017-10-11T13:59:51.225Z,22.41
2017-10-11T14:00:59.923Z,22.41
2017-10-11T14:02:08.623Z,22.39
2017-10-11T14:03:17.649Z,22.39
2017-10-11T14:04:26.347Z,22.44
2017-10-11T14:05:35.713Z,22.36
2017-10-11T14:06:44.414Z,22.43
2017-10-11T14:07:53.778Z,22.44
2017-10-11T14:09:02.814Z,22.44
2017-10-11T14:10:11.847Z,22.41
2017-10-11T14:11:21.541Z,22.44
2017-10-11T14:12:30.904Z,22.44
2017-10-11T14:13:40.265Z,22.41
2017-10-11T14:14:48.963Z,22.41
2017-10-11T14:15:57.662Z,22.38
2017-10-11T14:17:07.358Z,22.47
2017-10-11T14:18:16.727Z,22.43
2017-10-11T14:19:25.427Z,22.44
2017-10-11T14:20:34.790Z,22.43
2017-10-11T14:21:44.164Z,22.41
2017-10-11T14:22:53.860Z,22.43
2017-10-11T14:24:03.220Z,22.44
2017-10-11T14:25:12.253Z,22.51
2017-10-11T14:26:21.609Z,22.47
2017-10-11T14:27:30.669Z,22.44
2017-10-11T14:28:39.366Z,22.41
2017-10-11T14:29:48.399Z,22.48
2017-10-11T14:30:58.086Z,22.44
2017-10-11T14:32:06.786Z,22.45
2017-10-11T14:33:15.502Z,22.48
2017-10-11T14:34:24.539Z,22.47
2017-10-11T14:35:33.239Z,22.45
2017-10-11T14:36:42.274Z,22.45
2017-10-11T14:37:50.969Z,22.45
2017-10-11T14:38:59.998Z,22.5
2017-10-11T14:40:09.698Z,22.43
2017-10-11T14:41:19.085Z,22.47
2017-10-11T14:42:28.114Z,22.45
2017-10-11T14:43:37.141Z,22.44
2017-10-11T14:44:46.174Z,22.53
2017-10-11T14:45:55.532Z,22.5
2017-10-11T14:47:04.241Z,22.51
2017-10-11T14:48:13.609Z,22.51
2017-10-11T14:49:23.302Z,22.51
2017-10-11T14:50:33.039Z,22.55
2017-10-11T14:51:42.070Z,22.53
2017-10-11T14:52:51.775Z,22.55
2017-10-11T14:54:01.467Z,22.54
2017-10-11T14:55:10.165Z,22.54
2017-10-11T14:56:19.192Z,22.53
2017-10-11T14:57:27.897Z,22.53
2017-10-11T14:58:37.257Z,22.51
2017-10-11T14:59:46.954Z,22.54
2017-10-11T15:00:55.983Z,22.51
2017-10-11T15:02:05.346Z,22.5
2017-10-11T15:03:14.372Z,22.48
2017-10-11T15:04:23.073Z,22.51